< Typhoon 202203 2022 Season Typhoon 202205 >
Typhoon 202204 (AERE)
General InformationTrack Information on Google MapsDetailed Wind InformationForecast History on Google MapsAccess Analytics MapList of All Images || NewsDisaster Info.JMA Disaster Info. XMLWeblogTrackbackTyphoon FrontTwiphoonTyphoon Now!Typhoon ImaginationResourceGoogle EarthGE AnimationAtom FeedGeoJSON
Detalied Best Track (Time Zone = UTC)
Year Month Day Hour Lat. Long. Pressure (hPa) Wind (kt) Class Image Chart
2022 6 30 12 19.1 131.0 1004 0 2 Image Chart
2022 6 30 18 19.6 130.9 1000 35 3 Image Chart
2022 7 1 00 20.1 131.0 998 40 3 Image Chart
2022 7 1 06 20.9 131.3 998 40 3 Image Chart
2022 7 1 12 22.2 131.7 998 40 3 Image Chart
2022 7 1 18 23.5 131.3 998 40 3 Image Chart
2022 7 2 00 24.7 130.4 998 40 3 Image Chart
2022 7 2 06 25.9 129.5 994 45 3 Image Chart
2022 7 2 12 26.3 128.1 994 45 3 Image Chart
2022 7 2 14 26.4 127.9 994 45 3 Image Chart
2022 7 2 18 27.2 127.5 996 40 3 Image Chart
2022 7 3 00 27.8 127.2 998 35 3 Image Chart
2022 7 3 06 28.1 126.9 998 35 3 Image Chart
2022 7 3 12 28.4 126.6 998 35 3 Image Chart
2022 7 3 18 29.3 126.8 998 35 3 Image Chart
2022 7 4 00 30.0 127.4 998 35 3 Image Chart
2022 7 4 06 30.8 127.9 998 35 3 Image Chart
2022 7 4 12 31.6 128.8 998 35 3 Image Chart
2022 7 4 18 32.6 129.3 1000 35 3 Image Chart
2022 7 4 20 33.0 129.7 1000 35 3 Image Chart
2022 7 5 00 33.0 131.0 1002 0 6 Image Chart
2022 7 5 06 34.3 133.3 1004 0 6 Image Chart
2022 7 5 12 34.7 135.1 1006 0 6 Image Chart
2022 7 5 18 34.0 138.8 1002 0 6 Image Chart
2022 7 6 00 34.4 140.9 1002 0 6 Image Chart
2022 7 6 06 34.1 142.0 1002 0 6 Image Chart
2022 7 6 12 34.1 142.8 1000 0 6 Image Chart
2022 7 6 18 33.9 143.9 1000 0 6 Image Chart
2022 7 7 00 33.8 145.2 998 0 6 Image Chart
2022 7 7 06 34.1 145.7 996 0 6 Image Chart
2022 7 7 12 34.3 146.1 996 0 6 Image Chart
2022 7 7 18 34.7 146.0 996 0 6 Image Chart
2022 7 8 00 34.5 144.8 996 0 6 Image Chart
2022 7 8 06 34.5 144.8 996 0 6 Image Chart
2022 7 8 12 34.5 144.4 996 0 6 Image Chart
2022 7 8 18 34.8 144.5 996 0 6 Image Chart
2022 7 9 00 35.9 144.8 998 0 6 Image Chart
2022 7 9 06 37.5 144.7 998 0 6 Image Chart
2022 7 9 12 39.2 143.7 1000 0 6 Image Chart
2022 7 9 18 39.8 143.3 1000 0 6 Image Chart
2022 7 10 00 40.8 143.2 1002 0 6 Image Chart
2022 7 10 06 41.2 142.7 1004 0 6 Image Chart
2022 7 10 12 41.5 143.0 1008 0 6 Image Chart
Japan Meteorological Agency Best Track Data | Correction Date : 2022-10-06
< Typhoon 202203 2022 Season Typhoon 202205 >

Help